Time;durP1;ratioP1;P1;durP2;ratioP2;P2;SDS_P1;SDS_P2;PMS_P1;PMS_P2;Temp;Humidity;BMP_temperature;BMP_pressure;BME280_temperature;BME280_humidity;BME280_pressure;Samples;Min_cycle;Max_cycle;Signal;HPM_P1;HPM_P2
2022/04/19 00:00:39;;;;;;;10.07;6.67;;;8.20;99.90;;;;;;5057593;28;20314;-42
2022/04/19 00:03:06;;;;;;;9.73;7.10;;;8.20;99.90;;;;;;5052646;28;20052;-42
2022/04/19 00:05:33;;;;;;;10.13;6.93;;;8.10;99.90;;;;;;5063257;28;20548;-42
2022/04/19 00:08:09;;;;;;;10.90;7.17;;;8.10;99.90;;;;;;5036199;28;20529;-41
2022/04/19 00:10:35;;;;;;;11.83;7.30;;;8.10;99.90;;;;;;5056847;28;20511;-42
2022/04/19 00:13:04;;;;;;;12.67;7.10;;;8.10;99.90;;;;;;5057431;28;20049;-42
2022/04/19 00:15:32;;;;;;;11.53;6.83;;;8.00;99.90;;;;;;5057959;28;20051;-41
2022/04/19 00:18:03;;;;;;;10.83;6.43;;;8.00;99.90;;;;;;5043094;28;20427;-41
2022/04/19 00:20:29;;;;;;;11.05;6.88;;;7.90;99.90;;;;;;5059211;28;20044;-41
2022/04/19 00:22:57;;;;;;;9.67;6.97;;;7.90;99.90;;;;;;5052466;28;20458;-41
2022/04/19 00:25:23;;;;;;;9.87;6.97;;;7.80;99.90;;;;;;5054656;28;20052;-41
2022/04/19 00:27:49;;;;;;;11.33;7.27;;;7.80;99.90;;;;;;5043688;28;20041;-41
2022/04/19 00:30:15;;;;;;;10.43;7.50;;;7.80;99.90;;;;;;5059826;28;20048;-41
2022/04/19 00:32:40;;;;;;;10.27;6.80;;;7.70;99.90;;;;;;5059157;28;20044;-41
2022/04/19 00:35:08;;;;;;;12.33;7.80;;;7.70;99.90;;;;;;5058370;28;20518;-41
2022/04/19 00:37:36;;;;;;;11.70;7.23;;;7.70;99.90;;;;;;5034808;28;20048;-41
2022/04/19 00:40:03;;;;;;;12.87;8.07;;;7.70;99.90;;;;;;5053473;28;20041;-41
2022/04/19 00:42:30;;;;;;;10.77;8.00;;;7.60;99.90;;;;;;5052365;28;20562;-41
2022/04/19 00:44:57;;;;;;;10.50;7.67;;;7.50;99.90;;;;;;5052697;28;20176;-41
2022/04/19 00:47:23;;;;;;;13.93;8.27;;;7.60;99.90;;;;;;5042858;28;20060;-41
2022/04/19 00:49:49;;;;;;;11.17;7.87;;;7.50;99.90;;;;;;5060702;28;20052;-41
2022/04/19 00:52:15;;;;;;;13.50;8.33;;;7.50;99.90;;;;;;5051261;28;20097;-41
2022/04/19 00:54:44;;;;;;;11.00;7.80;;;7.50;99.90;;;;;;5053090;28;20210;-41
2022/04/19 00:57:14;;;;;;;12.50;8.13;;;7.60;99.90;;;;;;5049820;28;20419;-41
2022/04/19 00:59:41;;;;;;;11.20;8.07;;;7.40;99.90;;;;;;5054809;28;20041;-41
2022/04/19 01:02:07;;;;;;;12.73;8.10;;;7.40;99.90;;;;;;5052506;28;20060;-41
2022/04/19 01:04:32;;;;;;;13.60;7.93;;;7.30;99.90;;;;;;5065031;28;20415;-41
2022/04/19 01:06:58;;;;;;;10.83;8.40;;;7.30;99.90;;;;;;5041240;28;20516;-41
2022/04/19 01:09:24;;;;;;;12.00;8.03;;;7.30;99.90;;;;;;5058385;28;20532;-41
2022/04/19 01:14:38;;;;;;;14.27;8.67;;;7.30;99.90;;;;;;5050631;28;20059;-42
2022/04/19 01:17:06;;;;;;;12.57;8.40;;;7.20;99.90;;;;;;5048429;28;20586;-43
2022/04/19 01:19:35;;;;;;;12.70;8.37;;;7.20;99.90;;;;;;5049856;28;20408;-41
2022/04/19 01:22:01;;;;;;;12.63;8.87;;;7.20;99.90;;;;;;5064121;28;20519;-41
2022/04/19 01:24:27;;;;;;;13.80;9.00;;;7.10;99.90;;;;;;5049596;28;20055;-41
2022/04/19 01:26:57;;;;;;;12.73;8.30;;;7.10;99.90;;;;;;5048916;28;20054;-41
2022/04/19 01:29:24;;;;;;;13.95;8.60;;;7.10;99.90;;;;;;5047152;28;20042;-41
2022/04/19 01:31:51;;;;;;;13.30;8.53;;;7.10;99.90;;;;;;5052711;28;20445;-41
2022/04/19 01:34:18;;;;;;;12.67;7.93;;;7.10;99.90;;;;;;5048909;28;20049;-41
2022/04/19 01:36:44;;;;;;;11.53;8.77;;;7.10;99.90;;;;;;5036864;28;20110;-41
2022/04/19 01:39:11;;;;;;;12.77;8.50;;;7.10;99.90;;;;;;5057771;28;20045;-41
2022/04/19 01:41:38;;;;;;;12.07;8.53;;;7.00;99.90;;;;;;5059054;28;20076;-41
2022/04/19 01:44:08;;;;;;;15.00;9.10;;;7.00;99.90;;;;;;5056711;28;20049;-41
2022/04/19 01:46:35;;;;;;;13.10;8.50;;;7.00;99.90;;;;;;5045208;28;20040;-41
2022/04/19 01:49:04;;;;;;;13.57;9.33;;;7.00;99.90;;;;;;5052849;28;20454;-41
2022/04/19 01:51:30;;;;;;;11.57;8.30;;;6.90;99.90;;;;;;5056280;28;20059;-41
2022/04/19 01:53:56;;;;;;;13.83;9.27;;;6.90;99.90;;;;;;5050698;28;20051;-41
2022/04/19 01:56:22;;;;;;;11.27;8.07;;;6.90;99.90;;;;;;5040477;28;20399;-41
2022/04/19 01:58:48;;;;;;;14.70;9.07;;;6.90;99.90;;;;;;5054308;28;20495;-41
2022/04/19 02:01:14;;;;;;;15.57;9.23;;;6.90;99.90;;;;;;5047232;28;20379;-41
2022/04/19 02:03:41;;;;;;;13.93;9.03;;;6.80;99.90;;;;;;5049639;28;20518;-41
2022/04/19 02:06:08;;;;;;;14.63;9.30;;;6.80;99.90;;;;;;5049330;28;20037;-41
2022/04/19 02:08:34;;;;;;;13.07;9.10;;;6.80;99.90;;;;;;5040099;28;20182;-41
2022/04/19 02:11:00;;;;;;;16.20;9.43;;;6.80;99.90;;;;;;5051285;28;20140;-41
2022/04/19 02:13:26;;;;;;;13.57;8.93;;;6.80;99.90;;;;;;5056277;28;20052;-41
2022/04/19 02:15:52;;;;;;;14.03;9.33;;;6.80;99.90;;;;;;5049146;28;20123;-41
2022/04/19 02:18:19;;;;;;;14.90;8.73;;;6.70;99.90;;;;;;5038439;28;20045;-41
2022/04/19 02:20:45;;;;;;;14.37;8.80;;;6.70;99.90;;;;;;5058476;28;20049;-41
2022/04/19 02:23:15;;;;;;;13.97;9.07;;;6.70;99.90;;;;;;5051233;28;20499;-41
2022/04/19 02:25:42;;;;;;;14.27;10.10;;;6.70;99.90;;;;;;5051387;28;20641;-41
2022/04/19 02:28:08;;;;;;;14.33;9.23;;;6.60;99.90;;;;;;5037699;28;20499;-41
2022/04/19 02:30:34;;;;;;;14.97;9.23;;;6.60;99.90;;;;;;5056066;28;20554;-41
2022/04/19 02:33:02;;;;;;;14.67;9.20;;;6.60;99.90;;;;;;5052547;28;20385;-41
2022/04/19 02:35:28;;;;;;;17.70;9.80;;;6.60;99.90;;;;;;5061349;28;20491;-41
2022/04/19 02:37:56;;;;;;;15.80;9.60;;;6.60;99.90;;;;;;5038042;28;20060;-41
2022/04/19 02:40:24;;;;;;;12.43;8.53;;;6.50;99.90;;;;;;5049544;28;20044;-41
2022/04/19 02:42:51;;;;;;;14.43;9.20;;;6.60;99.90;;;;;;5053098;28;20423;-41
2022/04/19 02:45:21;;;;;;;12.47;8.67;;;6.50;99.90;;;;;;5057514;28;20052;-41
2022/04/19 02:47:47;;;;;;;15.23;9.50;;;6.50;99.90;;;;;;5039110;28;20051;-41
2022/04/19 02:50:16;;;;;;;16.20;9.03;;;6.50;99.90;;;;;;5050644;28;20131;-41
2022/04/19 02:52:42;;;;;;;12.00;8.70;;;6.50;99.90;;;;;;5051755;28;20044;-41
2022/04/19 02:55:07;;;;;;;13.50;9.13;;;6.40;99.90;;;;;;5050015;28;20052;-41
2022/04/19 02:57:33;;;;;;;12.93;8.47;;;6.40;99.90;;;;;;5038406;28;20515;-41
2022/04/19 03:00:00;;;;;;;12.50;8.33;;;6.40;99.90;;;;;;5056959;28;20082;-42
2022/04/19 03:02:25;;;;;;;12.83;8.67;;;6.40;99.90;;;;;;5053476;28;20451;-41
2022/04/19 03:04:51;;;;;;;12.37;8.23;;;6.30;99.90;;;;;;5060821;28;20056;-41
2022/04/19 03:07:17;;;;;;;13.33;8.77;;;6.30;99.90;;;;;;5027742;28;20143;-41
2022/04/19 03:09:43;;;;;;;16.30;8.80;;;6.30;99.90;;;;;;5048336;28;20048;-41
2022/04/19 03:12:14;;;;;;;14.73;9.20;;;6.20;99.90;;;;;;5053133;28;20382;-41
2022/04/19 03:14:41;;;;;;;;;;;6.20;99.90;;;;;;5057995;28;20049;-41
2022/04/19 03:17:07;;;;;;;12.23;8.70;;;6.20;99.90;;;;;;5044913;28;19924;-41
2022/04/19 03:19:33;;;;;;;11.93;8.03;;;6.20;99.90;;;;;;5061006;28;20048;-41
2022/04/19 03:21:59;;;;;;;12.60;8.33;;;6.10;99.90;;;;;;5057929;28;20036;-41
2022/04/19 03:29:53;;;;;;;12.23;8.47;;;6.10;99.90;;;;;;5055965;28;20059;-41
2022/04/19 03:32:23;;;;;;;14.10;8.60;;;6.00;99.90;;;;;;5064118;28;20040;-41
2022/04/19 03:34:50;;;;;;;14.33;8.67;;;6.00;99.90;;;;;;5055243;28;20041;-41
2022/04/19 03:37:15;;;;;;;11.77;8.40;;;6.00;99.90;;;;;;5044614;28;20052;-41
2022/04/19 03:39:41;;;;;;;12.40;8.13;;;6.10;99.90;;;;;;5057565;28;20040;-41
2022/04/19 03:42:07;;;;;;;10.67;7.77;;;6.00;99.90;;;;;;5053474;28;20044;-41
2022/04/19 03:44:33;;;;;;;11.57;8.10;;;5.90;99.90;;;;;;5056440;28;20053;-41
2022/04/19 03:47:07;;;;;;;12.17;8.27;;;5.90;99.90;;;;;;5045392;28;20141;-41
2022/04/19 03:49:37;;;;;;;12.47;8.07;;;5.90;99.90;;;;;;5059202;28;20459;-41
2022/04/19 03:52:04;;;;;;;13.30;8.33;;;5.80;99.90;;;;;;5053076;28;20408;-43
2022/04/19 03:54:34;;;;;;;11.60;8.30;;;5.80;99.90;;;;;;5055506;28;20092;-41
2022/04/19 03:57:07;;;;;;;14.40;7.23;;;5.80;99.90;;;;;;5045558;28;20158;-41
2022/04/19 03:59:34;;;;;;;12.97;7.67;;;5.70;99.90;;;;;;5059015;28;20075;-41
2022/04/19 04:02:00;;;;;;;13.70;7.57;;;5.80;99.90;;;;;;5060550;28;20040;-41
2022/04/19 04:04:31;;;;;;;13.53;8.33;;;5.60;99.90;;;;;;5059099;28;20053;-41
2022/04/19 04:07:00;;;;;;;12.57;7.88;;;5.70;99.90;;;;;;5041807;28;20080;-41
2022/04/19 04:09:32;;;;;;;13.93;8.00;;;5.60;99.90;;;;;;5052413;28;20037;-41
2022/04/19 04:12:03;;;;;;;15.07;8.23;;;5.60;99.90;;;;;;5057995;28;20075;-41
2022/04/19 04:14:29;;;;;;;8.68;5.82;;;5.60;99.90;;;;;;5059196;28;20131;-41
2022/04/19 04:16:55;;;;;;;11.80;7.87;;;5.60;99.90;;;;;;5050184;28;20064;-41
2022/04/19 04:19:21;;;;;;;12.90;8.73;;;5.60;99.90;;;;;;5052330;28;20049;-40
2022/04/19 04:21:46;;;;;;;11.57;8.07;;;5.50;99.90;;;;;;5057103;28;20036;-41
2022/04/19 04:24:12;;;;;;;12.27;8.57;;;5.50;99.90;;;;;;5057551;28;20403;-41
2022/04/19 04:26:38;;;;;;;13.10;8.53;;;5.50;99.90;;;;;;5040595;28;20048;-41
2022/04/19 04:29:04;;;;;;;15.83;9.03;;;5.50;99.90;;;;;;5060797;28;20128;-41
2022/04/19 04:31:29;;;;;;;12.37;8.33;;;5.50;99.90;;;;;;5048177;28;20049;-41
2022/04/19 04:33:55;;;;;;;13.63;9.23;;;5.50;99.90;;;;;;5058898;28;20373;-41
2022/04/19 04:36:21;;;;;;;12.93;8.23;;;5.50;99.90;;;;;;5044640;28;20101;-41
2022/04/19 04:38:47;;;;;;;15.60;8.50;;;5.50;99.90;;;;;;5048582;28;20063;-41
2022/04/19 04:41:12;;;;;;;12.50;8.80;;;5.40;99.90;;;;;;5066288;28;20033;-41
2022/04/19 04:43:39;;;;;;;13.73;8.90;;;5.40;99.90;;;;;;5051999;28;20053;-41
2022/04/19 04:51:34;;;;;;;12.17;8.50;;;5.40;99.90;;;;;;5053263;28;20048;-40
2022/04/19 04:54:00;;;;;;;14.30;9.30;;;5.40;99.90;;;;;;5053848;28;20057;-41
2022/04/19 04:56:26;;;;;;;13.03;7.90;;;5.40;99.90;;;;;;5033634;28;20831;-41
2022/04/19 04:58:51;;;;;;;13.53;8.73;;;5.40;99.90;;;;;;5042644;28;20049;-41
2022/04/19 05:01:17;;;;;;;12.27;8.40;;;5.40;99.90;;;;;;5048451;28;20536;-41
2022/04/19 05:03:43;;;;;;;14.93;8.87;;;5.40;99.90;;;;;;5050532;28;20055;-41
2022/04/19 05:06:08;;;;;;;14.40;8.87;;;5.40;99.90;;;;;;5055263;28;20048;-41
2022/04/19 05:08:34;;;;;;;12.00;8.97;;;5.50;99.90;;;;;;5027206;28;20285;-41
2022/04/19 05:11:00;;;;;;;15.47;9.10;;;5.60;99.90;;;;;;5052582;28;20536;-41
2022/04/19 05:13:25;;;;;;;14.27;8.80;;;5.50;99.90;;;;;;5057059;28;20190;-41
2022/04/19 05:15:51;;;;;;;16.13;9.20;;;5.50;99.90;;;;;;5058808;28;20086;-41
2022/04/19 05:18:17;;;;;;;13.37;9.40;;;5.50;99.90;;;;;;5041288;28;20041;-41
2022/04/19 05:20:42;;;;;;;13.27;8.83;;;5.60;99.90;;;;;;5048960;28;20045;-41
2022/04/19 05:23:09;;;;;;;13.90;8.77;;;5.60;99.90;;;;;;5056184;28;20106;-41
2022/04/19 05:25:35;;;;;;;14.17;8.23;;;5.70;99.90;;;;;;5058770;28;20095;-41
2022/04/19 05:28:01;;;;;;;14.47;9.90;;;5.80;99.90;;;;;;5039381;28;20052;-41
2022/04/19 05:30:26;;;;;;;15.50;8.83;;;5.70;99.90;;;;;;5058554;28;20041;-41
2022/04/19 05:32:53;;;;;;;14.20;9.70;;;5.80;99.90;;;;;;5052053;28;20052;-41
2022/04/19 05:35:18;;;;;;;15.90;9.10;;;5.90;99.90;;;;;;5052221;28;20098;-41
2022/04/19 05:37:45;;;;;;;18.80;10.77;;;5.90;99.90;;;;;;5038715;28;20492;-41
2022/04/19 05:40:11;;;;;;;16.47;9.10;;;6.00;99.90;;;;;;5058292;28;20036;-41
2022/04/19 05:42:37;;;;;;;16.57;9.17;;;6.20;99.90;;;;;;5052033;28;20041;-41
2022/04/19 05:45:03;;;;;;;17.33;10.00;;;6.20;99.90;;;;;;5051582;28;20051;-41
2022/04/19 05:47:30;;;;;;;17.27;10.17;;;6.30;99.90;;;;;;5040114;28;20127;-42
2022/04/19 05:49:56;;;;;;;15.60;10.33;;;6.40;99.90;;;;;;5059320;28;20471;-42
2022/04/19 05:52:22;;;;;;;18.40;11.07;;;6.50;99.90;;;;;;5057327;28;20041;-42
2022/04/19 05:54:47;;;;;;;16.77;10.60;;;6.80;99.90;;;;;;5057961;28;20061;-42
2022/04/19 05:57:13;;;;;;;20.10;11.07;;;6.70;99.90;;;;;;5036379;28;20098;-41
2022/04/19 05:59:39;;;;;;;18.10;10.53;;;6.90;99.90;;;;;;5051399;28;20043;-41
2022/04/19 06:04:53;;;;;;;19.97;10.73;;;7.10;99.90;;;;;;5057003;28;20053;-41
2022/04/19 06:07:22;;;;;;;18.00;10.17;;;7.30;99.90;;;;;;5042532;28;20043;-41
2022/04/19 06:09:48;;;;;;;19.97;10.90;;;7.50;99.90;;;;;;5051360;28;20407;-41
2022/04/19 06:12:14;;;;;;;19.63;11.30;;;7.70;99.90;;;;;;5051807;28;20033;-41
2022/04/19 06:14:40;;;;;;;14.10;10.17;;;7.80;99.90;;;;;;5058675;28;20056;-41
2022/04/19 06:17:06;;;;;;;17.37;11.17;;;7.90;99.90;;;;;;5045618;28;20040;-41
2022/04/19 06:19:31;;;;;;;19.37;11.20;;;8.10;99.90;;;;;;5049777;28;20515;-44
2022/04/19 06:21:58;;;;;;;16.73;10.73;;;8.20;99.90;;;;;;5052874;28;20037;-42
2022/04/19 06:24:24;;;;;;;17.17;10.53;;;8.40;99.90;;;;;;5056593;28;20076;-41
2022/04/19 06:26:50;;;;;;;15.90;10.43;;;8.60;99.90;;;;;;5042372;28;21004;-41
2022/04/19 06:29:16;;;;;;;18.63;10.20;;;8.70;99.90;;;;;;5050488;28;20049;-41
2022/04/19 06:31:43;;;;;;;16.70;9.77;;;8.90;99.90;;;;;;5050332;28;20048;-41
2022/04/19 06:34:09;;;;;;;17.03;10.60;;;8.90;99.90;;;;;;5055961;28;20136;-41
2022/04/19 06:36:35;;;;;;;17.43;10.67;;;9.10;99.90;;;;;;5040020;28;20048;-41
2022/04/19 06:39:01;;;;;;;17.03;10.63;;;9.10;99.90;;;;;;5043919;28;20041;-44
2022/04/19 06:41:27;;;;;;;16.43;10.07;;;9.40;99.90;;;;;;5053176;28;20048;-44
2022/04/19 06:43:57;;;;;;;16.07;10.07;;;9.40;99.90;;;;;;5047151;28;20102;-44
2022/04/19 06:46:25;;;;;;;18.87;10.13;;;9.60;99.90;;;;;;5033388;28;20052;-44
2022/04/19 06:48:53;;;;;;;15.07;9.80;;;9.80;99.90;;;;;;5050650;28;20041;-41
2022/04/19 06:51:23;;;;;;;14.17;9.80;;;9.90;99.90;;;;;;5052417;28;20041;-42
2022/04/19 06:53:49;;;;;;;13.83;8.63;;;10.00;99.90;;;;;;5044303;28;20052;-42
2022/04/19 06:56:16;;;;;;;16.70;9.63;;;10.10;99.90;;;;;;5044487;28;20944;-41
2022/04/19 06:58:42;;;;;;;15.97;8.90;;;10.10;99.90;;;;;;5043702;28;20071;-41
2022/04/19 07:01:10;;;;;;;13.63;9.10;;;10.30;99.90;;;;;;5062514;28;20143;-41
2022/04/19 07:03:36;;;;;;;15.67;8.83;;;10.40;99.90;;;;;;5037683;28;20135;-42
2022/04/19 07:06:03;;;;;;;12.10;8.23;;;10.50;99.90;;;;;;5049384;28;20105;-41
2022/04/19 07:08:30;;;;;;;13.95;8.27;;;10.70;99.90;;;;;;5031572;28;20037;-42
2022/04/19 07:10:56;;;;;;;14.97;8.30;;;10.70;99.90;;;;;;5048698;28;20040;-42
2022/04/19 07:13:24;;;;;;;12.45;7.38;;;10.80;99.90;;;;;;5045409;28;20049;-41
2022/04/19 07:15:50;;;;;;;12.00;7.20;;;10.90;99.90;;;;;;5046386;28;20059;-42
2022/04/19 07:18:17;;;;;;;11.13;7.20;;;11.00;99.90;;;;;;5029794;28;20040;-42
2022/04/19 07:28:56;;;;;;;12.98;6.80;;;11.30;99.90;;;;;;5039128;28;20067;-42
2022/04/19 07:31:22;;;;;;;12.50;6.75;;;11.40;99.90;;;;;;5047215;28;20040;-42
2022/04/19 07:33:48;;;;;;;9.93;6.72;;;11.40;99.90;;;;;;5028998;28;20455;-42
2022/04/19 07:36:14;;;;;;;9.77;6.78;;;11.60;99.90;;;;;;5038462;28;20082;-42
2022/04/19 07:38:40;;;;;;;12.25;6.63;;;11.60;99.90;;;;;;5045909;28;20049;-41
2022/04/19 07:41:06;;;;;;;7.95;5.78;;;11.70;99.90;;;;;;5044982;28;20063;-42
2022/04/19 07:43:32;;;;;;;9.35;5.43;;;11.70;99.90;;;;;;5047311;28;20421;-42
2022/04/19 07:45:58;;;;;;;8.98;5.63;;;11.80;99.90;;;;;;5045912;28;20113;-42
2022/04/19 07:48:24;;;;;;;9.05;5.65;;;11.80;99.90;;;;;;5026508;28;20036;-42
2022/04/19 07:50:50;;;;;;;6.85;5.13;;;11.90;99.90;;;;;;5048656;28;20161;-42
2022/04/19 07:53:16;;;;;;;9.48;5.45;;;11.90;99.90;;;;;;5046781;28;20476;-42
2022/04/19 07:55:42;;;;;;;12.55;6.70;;;11.90;99.90;;;;;;5050104;28;20059;-42
2022/04/19 07:58:08;;;;;;;12.52;7.15;;;12.00;99.90;;;;;;5019746;28;20531;-41
2022/04/19 08:00:34;;;;;;;12.65;7.07;;;12.00;99.90;;;;;;5046437;28;20388;-42
2022/04/19 08:02:59;;;;;;;9.90;7.10;;;12.10;99.90;;;;;;5044212;28;20135;-42
2022/04/19 08:05:26;;;;;;;8.23;6.13;;;12.10;99.90;;;;;;5050835;28;20908;-41
2022/04/19 08:07:52;;;;;;;8.40;5.60;;;12.20;99.90;;;;;;5032633;28;20049;-42
2022/04/19 08:10:20;;;;;;;7.90;5.60;;;12.20;99.90;;;;;;5046995;28;20539;-42
2022/04/19 08:12:46;;;;;;;7.00;5.07;;;12.30;99.90;;;;;;5055129;28;20044;-42
2022/04/19 08:15:12;;;;;;;7.40;3.90;;;12.30;99.90;;;;;;5052791;28;20040;-41
2022/04/19 08:17:38;;;;;;;5.18;3.55;;;12.30;99.90;;;;;;5031715;28;20056;-42
2022/04/19 08:20:05;;;;;;;5.05;3.80;;;12.30;99.90;;;;;;5048128;28;20253;-42
2022/04/19 08:22:31;;;;;;;7.72;3.85;;;12.40;99.90;;;;;;5040703;28;20419;-41
2022/04/19 08:24:56;;;;;;;5.00;3.40;;;12.40;99.90;;;;;;5050954;28;20057;-42
2022/04/19 08:27:22;;;;;;;5.75;3.33;;;12.40;99.90;;;;;;5026470;28;20055;-42
2022/04/19 08:29:48;;;;;;;4.68;2.97;;;12.40;99.90;;;;;;5045489;28;20070;-42
2022/04/19 08:32:14;;;;;;;5.40;3.05;;;12.50;99.90;;;;;;5045612;28;20037;-42
2022/04/19 08:34:40;;;;;;;4.78;2.88;;;12.50;99.90;;;;;;5046275;28;20118;-42
2022/04/19 08:37:07;;;;;;;5.45;3.17;;;12.40;99.90;;;;;;5039179;28;20052;-42
2022/04/19 08:39:33;;;;;;;6.28;3.40;;;12.60;99.90;;;;;;5054559;28;20441;-42
2022/04/19 08:41:59;;;;;;;5.05;3.00;;;12.60;99.90;;;;;;5047696;28;20098;-42
2022/04/19 08:44:25;;;;;;;8.48;3.00;;;12.60;99.90;;;;;;5047204;28;20118;-42
2022/04/19 08:46:54;;;;;;;4.22;2.45;;;12.60;99.90;;;;;;5033625;28;20048;-42
2022/04/19 08:49:20;;;;;;;5.63;2.72;;;12.70;99.90;;;;;;5029583;28;20041;-42
2022/04/19 08:51:46;;;;;;;4.43;2.45;;;12.70;99.90;;;;;;5051152;28;20056;-42
2022/04/19 08:59:41;;;;;;;2.35;1.90;;;12.90;99.90;;;;;;5048430;28;20515;-42
2022/04/19 09:02:17;;;;;;;4.18;1.30;;;13.00;99.90;;;;;;5047814;28;20055;-42
2022/04/19 09:04:43;;;;;;;1.75;1.35;;;13.00;99.90;;;;;;5033450;28;20037;-42
2022/04/19 09:07:09;;;;;;;1.17;0.80;;;13.10;99.90;;;;;;5033485;28;20493;-43
2022/04/19 09:09:36;;;;;;;2.33;1.02;;;13.10;99.90;;;;;;5053185;28;20403;-42
2022/04/19 09:12:12;;;;;;;2.85;0.90;;;13.20;99.90;;;;;;5049556;28;20408;-42
2022/04/19 09:14:59;;;;;;;2.20;0.90;;;13.20;99.90;;;;;;5050336;28;20488;-42
2022/04/19 09:17:36;;;;;;;2.08;0.85;;;13.30;99.90;;;;;;5033397;28;20106;-42
2022/04/19 09:20:19;;;;;;;1.95;1.30;;;13.30;99.90;;;;;;5049053;28;20078;-42
2022/04/19 09:22:48;;;;;;;5.72;1.20;;;13.40;99.90;;;;;;5043723;28;20057;-42
2022/04/19 09:25:20;;;;;;;2.63;1.25;;;13.60;99.90;;;;;;5055350;28;20135;-42
2022/04/19 09:27:46;;;;;;;;;;;13.50;99.90;;;;;;5038670;28;20127;-42
2022/04/19 09:30:22;;;;;;;3.63;1.10;;;13.50;99.90;;;;;;5048857;28;19928;-42
2022/04/19 09:33:00;;;;;;;4.07;1.30;;;13.50;99.90;;;;;;5041312;28;20102;-42
2022/04/19 09:35:30;;;;;;;1.73;1.40;;;13.60;99.90;;;;;;5055953;28;20052;-43
2022/04/19 09:37:56;;;;;;;2.38;1.30;;;13.70;99.90;;;;;;5038554;28;20044;-42
2022/04/19 09:40:33;;;;;;;3.25;1.60;;;13.70;99.90;;;;;;5041702;28;20131;-41
2022/04/19 09:43:14;;;;;;;3.65;1.63;;;13.70;99.90;;;;;;5044085;28;20040;-42
2022/04/19 09:45:54;;;;;;;3.28;1.65;;;13.80;99.90;;;;;;5047205;28;20075;-43
2022/04/19 09:48:37;;;;;;;2.75;1.40;;;13.90;99.90;;;;;;5033211;28;20069;-42
2022/04/19 09:51:04;;;;;;;3.60;1.85;;;13.90;99.90;;;;;;5050400;28;20587;-43
2022/04/19 09:53:46;;;;;;;4.13;1.90;;;14.00;99.90;;;;;;5049065;28;20044;-43
2022/04/19 09:56:13;;;;;;;4.05;1.92;;;14.10;99.90;;;;;;5041941;28;20185;-42
2022/04/19 09:58:41;;;;;;;3.10;2.03;;;14.10;99.90;;;;;;5041319;28;20055;-42
2022/04/19 10:01:07;;;;;;;3.42;1.85;;;14.20;99.90;;;;;;5050217;28;20241;-42
2022/04/19 10:09:05;;;;;;;1.90;1.38;;;14.40;99.90;;;;;;5043984;28;20056;-42
2022/04/19 10:11:31;;;;;;;3.80;1.45;;;14.40;99.90;;;;;;5048300;28;20043;-42
2022/04/19 10:13:58;;;;;;;2.70;2.10;;;14.50;99.90;;;;;;5047815;28;20040;-42
2022/04/19 10:16:27;;;;;;;5.75;2.13;;;14.50;99.90;;;;;;5039375;28;20518;-43
2022/04/19 10:18:52;;;;;;;6.93;2.15;;;14.60;99.90;;;;;;5044886;28;20044;-42
2022/04/19 10:21:24;;;;;;;4.85;2.30;;;14.60;99.90;;;;;;5054566;28;20047;-43
2022/04/19 10:23:50;;;;;;;4.20;1.90;;;14.60;99.90;;;;;;5049811;28;20163;-43
2022/04/19 10:26:17;;;;;;;2.45;1.55;;;14.70;99.90;;;;;;5035341;28;20131;-43
2022/04/19 10:28:45;;;;;;;4.07;2.15;;;14.70;99.90;;;;;;5044635;28;20041;-42
2022/04/19 10:31:12;;;;;;;6.75;1.67;;;14.80;99.90;;;;;;5045111;28;20057;-42
2022/04/19 10:33:52;;;;;;;3.47;1.88;;;14.80;99.90;;;;;;5042584;28;20053;-42
2022/04/19 10:36:34;;;;;;;2.30;1.55;;;14.90;99.90;;;;;;5035589;28;20044;-42
2022/04/19 10:39:15;;;;;;;2.45;1.75;;;14.90;99.90;;;;;;5043846;28;20341;-43
2022/04/19 10:42:05;;;;;;;1.67;1.35;;;15.00;99.90;;;;;;5049688;28;20040;-43
2022/04/19 10:44:49;;;;;;;4.43;1.67;;;15.00;99.90;;;;;;5024085;28;20072;-42
2022/04/19 10:47:16;;;;;;;4.13;1.80;;;15.10;99.90;;;;;;5012302;28;20408;-43
2022/04/19 10:49:49;;;;;;;5.22;2.10;;;15.10;99.90;;;;;;5026595;28;20629;-43
2022/04/19 10:52:40;;;;;;;2.72;1.77;;;15.20;99.90;;;;;;5030618;28;20074;-43
2022/04/19 10:55:23;;;;;;;4.40;2.13;;;15.30;99.90;;;;;;5043099;28;20053;-43
2022/04/19 10:58:23;;;;;;;2.22;2.00;;;15.30;99.90;;;;;;5035473;28;20063;-43
2022/04/19 11:00:57;;;;;;;3.58;2.13;;;15.30;99.90;;;;;;5047461;28;20661;-42
2022/04/19 11:03:37;;;;;;;3.85;1.95;;;15.40;99.90;;;;;;5049343;28;20044;-43
2022/04/19 11:06:28;;;;;;;2.27;1.80;;;15.50;99.90;;;;;;5048521;28;20720;-43
2022/04/19 11:09:16;;;;;;;3.53;2.27;;;15.50;99.90;;;;;;5043104;28;20064;-42
2022/04/19 11:11:46;;;;;;;3.83;2.42;;;15.50;99.90;;;;;;5046023;28;20491;-43
2022/04/19 11:14:37;;;;;;;3.22;2.25;;;15.60;99.90;;;;;;5047691;28;20054;-43
2022/04/19 11:17:18;;;;;;;3.35;2.40;;;15.60;99.90;;;;;;5029346;28;20049;-42
2022/04/19 11:19:52;;;;;;;4.93;2.22;;;15.70;99.90;;;;;;5047305;28;20163;-42
2022/04/19 11:22:29;;;;;;;2.83;2.53;;;15.70;99.90;;;;;;5043338;28;20072;-42
2022/04/19 11:25:06;;;;;;;5.30;2.30;;;15.80;99.90;;;;;;5049328;28;20096;-42
2022/04/19 11:27:52;;;;;;;3.90;2.13;;;15.90;99.90;;;;;;5031634;28;20441;-43
2022/04/19 11:30:18;;;;;;;5.32;2.28;;;15.90;99.90;;;;;;5029243;28;20048;-42
2022/04/19 11:32:50;;;;;;;3.33;2.00;;;16.00;99.90;;;;;;5047926;28;20056;-42
2022/04/19 11:35:17;;;;;;;3.60;2.17;;;16.10;99.90;;;;;;5053117;28;20151;-42
2022/04/19 11:37:44;;;;;;;1.98;1.77;;;16.00;99.90;;;;;;5030600;28;20060;-42
2022/04/19 11:48:47;;;;;;;3.22;2.08;;;16.40;99.90;;;;;;5044739;28;20624;-42
2022/04/19 11:51:15;;;;;;;4.18;2.22;;;16.50;99.90;;;;;;5053041;28;20415;-42
2022/04/19 11:53:41;;;;;;;4.60;2.53;;;16.60;99.90;;;;;;5046615;28;20090;-42
2022/04/19 11:56:07;;;;;;;4.80;2.72;;;16.60;99.90;;;;;;5050111;28;20061;-43
2022/04/19 11:58:34;;;;;;;4.65;3.50;;;16.80;99.90;;;;;;5040345;28;20385;-42
2022/04/19 12:01:05;;;;;;;4.57;3.08;;;16.80;99.90;;;;;;5049042;28;20056;-42
2022/04/19 12:03:36;;;;;;;4.15;3.00;;;16.90;99.90;;;;;;5047767;28;20481;-42
2022/04/19 12:06:18;;;;;;;5.00;3.45;;;16.90;99.90;;;;;;5051916;28;20048;-42
2022/04/19 12:08:53;;;;;;;4.85;2.90;;;17.00;99.90;;;;;;5043995;28;20085;-42
2022/04/19 12:11:26;;;;;;;4.68;3.33;;;17.00;99.90;;;;;;5051290;28;20207;-42
2022/04/19 12:13:52;;;;;;;6.13;3.33;;;17.00;99.90;;;;;;5032658;28;20048;-42
2022/04/19 12:16:39;;;;;;;6.90;3.17;;;17.10;99.90;;;;;;5040965;28;20114;-42
2022/04/19 12:19:10;;;;;;;4.57;2.15;;;17.10;99.90;;;;;;5041767;28;20139;-42
2022/04/19 12:21:44;;;;;;;5.95;2.30;;;17.10;99.90;;;;;;5048475;28;20080;-42
2022/04/19 12:24:19;;;;;;;3.45;1.92;;;17.10;99.90;;;;;;5049015;28;20048;-42
2022/04/19 12:26:48;;;;;;;2.42;1.70;;;17.10;99.90;;;;;;5033660;28;20049;-43
2022/04/19 12:29:14;;;;;;;2.63;2.10;;;17.10;99.90;;;;;;5046604;28;20412;-42
2022/04/19 12:31:47;;;;;;;7.60;2.05;;;17.20;99.90;;;;;;5047949;28;20044;-42
2022/04/19 12:34:13;;;;;;;6.32;2.30;;;17.20;99.90;;;;;;5046643;28;20048;-43
2022/04/19 12:36:42;;;;;;;3.78;2.22;;;17.20;99.90;;;;;;5038263;28;20055;-43
2022/04/19 12:39:08;;;;;;;3.60;2.17;;;17.30;99.90;;;;;;5047509;28;20740;-42
2022/04/19 12:41:43;;;;;;;3.40;1.98;;;17.30;99.90;;;;;;5052055;28;20520;-43
2022/04/19 12:44:14;;;;;;;2.60;1.73;;;17.30;99.90;;;;;;5045932;28;20535;-43
2022/04/19 12:46:51;;;;;;;2.63;1.92;;;17.40;99.90;;;;;;5038013;28;20518;-42
2022/04/19 12:49:25;;;;;;;4.20;1.80;;;17.50;99.90;;;;;;5048242;28;20068;-42
2022/04/19 12:52:17;;;;;;;6.43;1.85;;;17.50;99.90;;;;;;5048123;28;20501;-42
2022/04/19 12:54:45;;;;;;;2.97;2.03;;;17.60;99.90;;;;;;5046755;28;20048;-44
2022/04/19 12:57:13;;;;;;;4.03;1.73;;;17.60;99.90;;;;;;5032390;28;20143;-43
2022/04/19 12:59:40;;;;;;;3.03;1.45;;;17.60;99.90;;;;;;5050094;28;20559;-43
2022/04/19 13:02:06;;;;;;;3.60;1.75;;;17.70;99.90;;;;;;5045763;28;20055;-43
2022/04/19 13:04:32;;;;;;;2.30;1.88;;;17.70;99.70;;;;;;5051871;28;20032;-42
2022/04/19 13:12:27;;;;;;;5.22;1.92;;;17.90;99.60;;;;;;5047044;28;20268;-42
2022/04/19 13:14:54;;;;;;;5.38;2.10;;;17.90;99.70;;;;;;5045685;28;20142;-42
2022/04/19 13:17:21;;;;;;;3.85;1.90;;;17.90;99.70;;;;;;5032674;28;20045;-42
2022/04/19 13:19:47;;;;;;;2.35;1.70;;;18.00;99.70;;;;;;5049203;28;20084;-43
2022/04/19 13:22:14;;;;;;;1.98;1.52;;;18.00;99.10;;;;;;5048678;28;20132;-42
2022/04/19 13:24:41;;;;;;;5.78;2.35;;;18.00;99.00;;;;;;5051734;28;20616;-42
2022/04/19 13:27:07;;;;;;;2.17;1.80;;;18.10;99.10;;;;;;5033851;28;20048;-43
2022/04/19 13:29:38;;;;;;;3.95;2.30;;;18.10;99.20;;;;;;5045595;28;20128;-42
2022/04/19 13:32:04;;;;;;;3.97;2.40;;;18.20;98.60;;;;;;5050054;28;20531;-46
2022/04/19 13:34:30;;;;;;;4.15;2.22;;;18.20;98.40;;;;;;5050045;28;20045;-42
2022/04/19 13:36:56;;;;;;;3.63;1.77;;;18.30;98.40;;;;;;5036885;28;20051;-42
2022/04/19 13:39:23;;;;;;;4.03;1.80;;;18.40;98.40;;;;;;5049668;28;20539;-42
2022/04/19 13:41:49;;;;;;;3.05;1.90;;;18.40;97.90;;;;;;5048545;28;20078;-43